Nearby METAR Reports

 

KOXC - Oxford/Waterbury, Connecticut, USA
Distance from station: SE 8mi, 12km
Updated: Mon, 18-Mar-2019 7:51pm EDT
Few Clouds
Few Clouds
 Wind from W
Wind: W 5 mph , 7 km/h
Temperature: 36°F , 2°C
Wind Chill: 32°F , 0°C
Dew Point: 10°F , -12°C
Humidity: 35%
Barometer: 30.27 inHg , 1025.1 hPa
Clouds: Few Clouds
Visibility: 10 miles , 16 km
Cloud details: Few Clouds 7500 ft
2019/03/18 23:51 KOXC 182351Z 28004KT 10SM FEW075 02/M12 A3027 RMK AO2 SLP271 T00221122 10050 20022 53019
KDXR - Danbury, Connecticut, USA
Distance from station: SW 19mi, 30km
Updated: Mon, 18-Mar-2019 7:53pm EDT
Clear
Clear
 Wind from calm
Wind: Calm
Temperature: 36°F , 2°C
Dew Point: 10°F , -12°C
Humidity: 35%
Barometer: 30.28 inHg , 1025.4 hPa
Clouds: Clear
Visibility: 10 miles , 16 km
2019/03/18 23:53 KDXR 182353Z 00000KT 10SM CLR 02/M12 A3028 RMK AO2 SLP259 T00221122 10056 20022 53016
 
KMMK - Meriden, Connecticut, USA
Distance from station: E 20mi, 33km
Updated: Mon, 18-Mar-2019 7:53pm EDT
Mostly cloudy
Mostly cloudy
 Wind from WNW
Wind: WNW 6 mph , 9 km/h
Temperature: 39°F , 4°C
Wind Chill: 35°F , 2°C
Dew Point: 10°F , -12°C
Humidity: 30%
Barometer: 30.28 inHg , 1025.4 hPa
Clouds: Mostly cloudy
Visibility: 10 miles , 16 km
Cloud details: Mostly cloudy 8500 ft
2019/03/18 23:53 KMMK 182353Z AUTO 29005KT 10SM BKN085 04/M12 A3028 RMK AO2 SLP256 T00391117 10078 20039 53019
KBDR - Bridgeport, Connecticut, USA
Distance from station: S 27mi, 44km
Updated: Mon, 18-Mar-2019 7:52pm EDT
Clear
Clear
 Wind from WNW
Wind: WNW 5 mph , 7 km/h
Temperature: 39°F , 4°C
Wind Chill: 35°F , 2°C
Dew Point: 12°F , -11°C
Humidity: 33%
Barometer: 30.29 inHg , 1025.7 hPa
Clouds: Clear
Visibility: 10 miles , 16 km
2019/03/18 23:52 KBDR 182352Z 30004KT 10SM CLR 04/M11 A3029 RMK AO2 SLP258 60000 T00391111 10083 20039 53020
 
KHVN - New Haven/Tweed, Connecticut, USA
Distance from station: SE 27mi, 44km
Updated: Mon, 18-Mar-2019 7:53pm EDT
Clear
Clear
 Wind from NW
Wind: NW 6 mph , 9 km/h
Temperature: 43°F , 6°C
Wind Chill: 39°F , 4°C
Dew Point: 12°F , -11°C
Humidity: 29%
Barometer: 30.29 inHg , 1025.7 hPa
Clouds: Clear
Visibility: 10 miles , 16 km
2019/03/18 23:53 KHVN 182353Z 31005KT 10SM CLR 06/M11 A3029 RMK AO2 SLP255 T00561106 10078 20044 53020
KHFD - Hartford/Brainar, Connecticut, USA
Distance from station: ENE 32mi, 52km
Updated: Mon, 18-Mar-2019 7:53pm EDT
Partly cloudy
Partly cloudy
 Wind from NNW
Wind: NNW 8 mph , 13 km/h
Temperature: 39°F , 4°C
Wind Chill: 33°F , 1°C
Dew Point: 9°F , -13°C
Humidity: 28%
Barometer: 30.28 inHg , 1025.4 hPa
Clouds: Partly cloudy
Visibility: 10 miles , 16 km
Cloud details: Partly cloudy 9000 ft
2019/03/18 23:53 KHFD 182353Z 33007KT 10SM SCT090 04/M13 A3028 RMK AO2 SLP255 T00391128 10067 20039 53020
 
KPOU - Poughkeepsie, New York, USA
Distance from station: W 35mi, 56km
Updated: Mon, 18-Mar-2019 7:53pm EDT
Clear
Clear
 Wind from WNW
Wind: WNW 5 mph , 7 km/h
Temperature: 37°F , 3°C
Wind Chill: 33°F , 1°C
Dew Point: 12°F , -11°C
Humidity: 35%
Barometer: 30.28 inHg , 1025.4 hPa
Clouds: Clear
Visibility: 10 miles , 16 km
2019/03/18 23:53 KPOU 182353Z 29004KT 10SM CLR 03/M11 A3028 RMK AO2 SLP254 T00281111 10072 20028 53016
KBDL - Windsor Locks, Connecticut, USA
Distance from station: NE 38mi, 62km
Updated: Mon, 18-Mar-2019 7:51pm EDT
Few Clouds
Few Clouds
 Wind from NNW
Wind: NNW 5 mph , 7 km/h
Temperature: 37°F , 3°C
Wind Chill: 33°F , 1°C
Dew Point: 9°F , -13°C
Humidity: 30%
Barometer: 30.27 inHg , 1025.1 hPa
Clouds: Few Clouds
Visibility: 10 miles , 16 km
Cloud details: Few Clouds 8500 ft
2019/03/18 23:51 KBDL 182351Z 33004KT 10SM FEW085 03/M13 A3027 RMK AO2 SLP253 T00281128 10072 20022 53020
 
KSNC - Chester, Connecticut, USA
Distance from station: ESE 39mi, 63km
Updated: Mon, 18-Mar-2019 8:15pm EDT
Partly cloudy
Partly cloudy
 Wind from calm
Wind: Calm
Temperature: 37°F , 3°C
Dew Point: 10°F , -12°C
Humidity: 33%
Barometer: 30.28 inHg , 1025.4 hPa
Clouds: Partly cloudy
Visibility: 10 miles , 16 km
Cloud details: Partly cloudy 8000 ft
2019/03/19 00:15 KSNC 190015Z AUTO 00000KT 10SM SCT080 03/M12 A3028 RMK AO2
KHPN - White Plains, New York, USA
Distance from station: SW 42mi, 67km
Updated: Mon, 18-Mar-2019 7:56pm EDT
Partly cloudy
Partly cloudy
 Wind from calm
Wind: Calm
Temperature: 36°F , 2°C
Dew Point: 14°F , -10°C
Humidity: 41%
Barometer: 30.28 inHg , 1025.4 hPa
Clouds: Partly cloudy
Visibility: 10 miles , 16 km
Cloud details: Partly cloudy 9000 ft
2019/03/18 23:56 KHPN 182356Z 00000KT 10SM SCT090 02/M10 A3028 RMK AO2 SLP260 T00221100 10061 20022 53017
 
KSWF - Newburgh/Stewart, New York, USA
Distance from station: W 45mi, 72km
Updated: Mon, 18-Mar-2019 7:45pm EDT
Partly cloudy
Partly cloudy
 Wind from WNW
Wind: WNW 5 mph , 7 km/h
Temperature: 36°F , 2°C
Wind Chill: 32°F , 0°C
Dew Point: 14°F , -10°C
Humidity: 41%
Barometer: 30.28 inHg , 1025.4 hPa
Clouds: Partly cloudy
Visibility: 20 miles , 32 km
Cloud details: Partly cloudy 7000 ft
2019/03/18 23:45 KSWF 182345Z 29004KT 20SM SCT070 02/M10 A3028
KBAF - Westfield, Massachusetts, USA
Distance from station: NNE 50mi, 80km
Updated: Mon, 18-Mar-2019 7:53pm EDT
Clear
Clear
 Wind from calm
Wind: Calm
Temperature: 32°F , 0°C
Dew Point: 10°F , -12°C
Humidity: 40%
Barometer: 30.26 inHg , 1024.7 hPa
Clouds: Clear
Visibility: 10 miles , 16 km
2019/03/18 23:53 KBAF 182353Z 00000KT 10SM CLR 00/M12 A3026 RMK AO2 SLP255 T00001122 10056 20000 51018